SAS666 KSFO-KSAN
Flight info
| Callsign | SAS666 |
|---|---|
| Flight time | N/A |
| Altitude | 41000 |
| Route | WESLA5 YYUNG LAX COMIX2 |
| Aircraft | A359/H-SDE2E3GHIJ3J4J5LM1ORWXY/LB1D1 |
Departure
| Time | 2026-05-05 00:04 |
|---|---|
| Airport | San Francisco International Airport (KSFO) |
Arrival
| Time | N/A |
|---|---|
| Airport | San Diego International Airport (KSAN) |
| Time | Latitude | Longitude | Altitude | Speed | Heading |
|---|---|---|---|---|---|
| 2026-05-04 23:20 | 37.62134 | -122.38919 | 27 ft | 0 kts | 208° |
| 2026-05-04 23:52 | 37.62142 | -122.38914 | 26 ft | 4 kts | 208° |
| 2026-05-04 23:52 | 37.62166 | -122.38898 | 24 ft | 4 kts | 208° |
| 2026-05-04 23:52 | 37.62190 | -122.38882 | 25 ft | 4 kts | 208° |
| 2026-05-04 23:53 | 37.62213 | -122.38867 | 26 ft | 2 kts | 208° |
| 2026-05-04 23:53 | 37.62234 | -122.38857 | 26 ft | 4 kts | 162° |
| 2026-05-04 23:53 | 37.62250 | -122.38877 | 25 ft | 4 kts | 115° |
| 2026-05-04 23:53 | 37.62255 | -122.38891 | 27 ft | 0 kts | 118° |
| 2026-05-04 23:55 | 37.62254 | -122.38891 | 27 ft | 0 kts | 118° |
| 2026-05-04 23:58 | 37.62237 | -122.38855 | 27 ft | 11 kts | 122° |
| 2026-05-04 23:58 | 37.62191 | -122.38746 | 27 ft | 16 kts | 116° |
| 2026-05-04 23:58 | 37.62139 | -122.38616 | 27 ft | 18 kts | 117° |
| 2026-05-04 23:58 | 37.62081 | -122.38470 | 27 ft | 20 kts | 117° |
| 2026-05-04 23:59 | 37.62012 | -122.38312 | 27 ft | 21 kts | 120° |
| 2026-05-04 23:59 | 37.61938 | -122.38141 | 27 ft | 23 kts | 118° |
| 2026-05-04 23:59 | 37.61860 | -122.37954 | 27 ft | 25 kts | 117° |
| 2026-05-04 23:59 | 37.61791 | -122.37745 | 27 ft | 25 kts | 112° |
| 2026-05-05 00:00 | 37.61726 | -122.37551 | 27 ft | 21 kts | 114° |
| 2026-05-05 00:00 | 37.61705 | -122.37494 | 27 ft | 22 kts | 116° |
| 2026-05-05 00:00 | 37.61580 | -122.37181 | 27 ft | 26 kts | 118° |
| 2026-05-05 00:00 | 37.61501 | -122.36972 | 29 ft | 27 kts | 116° |
| 2026-05-05 00:01 | 37.61372 | -122.36788 | 27 ft | 29 kts | 126° |
| 2026-05-05 00:01 | 37.61274 | -122.36564 | 25 ft | 30 kts | 117° |
| 2026-05-05 00:01 | 37.61176 | -122.36329 | 27 ft | 28 kts | 118° |
| 2026-05-05 00:01 | 37.61083 | -122.36108 | 27 ft | 29 kts | 117° |
| 2026-05-05 00:02 | 37.61054 | -122.36005 | 27 ft | 8 kts | 99° |
| 2026-05-05 00:02 | 37.61054 | -122.35977 | 27 ft | 0 kts | 84° |
| 2026-05-05 00:02 | 37.61054 | -122.35975 | 27 ft | 2 kts | 83° |
| 2026-05-05 00:02 | 37.61079 | -122.35921 | 27 ft | 12 kts | 41° |
| 2026-05-05 00:03 | 37.61163 | -122.35874 | 27 ft | 14 kts | 356° |
| 2026-05-05 00:03 | 37.61225 | -122.35959 | 26 ft | 14 kts | 295° |
| 2026-05-05 00:03 | 37.61304 | -122.36158 | 27 ft | 54 kts | 298° |
| 2026-05-05 00:03 | 37.61594 | -122.36842 | 27 ft | 121 kts | 297° |
| 2026-05-05 00:04 | 37.62075 | -122.37993 | 125 ft | 168 kts | 296° |
| 2026-05-05 00:04 | 37.62623 | -122.39359 | 753 ft | 181 kts | 296° |
| 2026-05-05 00:04 | 37.63201 | -122.40846 | 1471 ft | 197 kts | 294° |
| 2026-05-05 00:04 | 37.63898 | -122.42459 | 2092 ft | 218 kts | 299° |
| 2026-05-05 00:05 | 37.64544 | -122.44191 | 3057 ft | 220 kts | 284° |
| 2026-05-05 00:05 | 37.64501 | -122.46089 | 3641 ft | 227 kts | 249° |
| 2026-05-05 00:05 | 37.63486 | -122.47638 | 4016 ft | 243 kts | 212° |
| 2026-05-05 00:05 | 37.61820 | -122.48157 | 4490 ft | 254 kts | 180° |
| 2026-05-05 00:06 | 37.60041 | -122.48039 | 5113 ft | 259 kts | 175° |
| 2026-05-05 00:06 | 37.58215 | -122.47887 | 5788 ft | 262 kts | 175° |
| 2026-05-05 00:06 | 37.56391 | -122.47771 | 6529 ft | 263 kts | 176° |
| 2026-05-05 00:06 | 37.55176 | -122.47708 | 6924 ft | 266 kts | 176° |
| 2026-05-05 00:07 | 37.53303 | -122.47625 | 7515 ft | 271 kts | 177° |
| 2026-05-05 00:07 | 37.50769 | -122.47528 | 8298 ft | 277 kts | 177° |
| 2026-05-05 00:07 | 37.48822 | -122.47537 | 8908 ft | 283 kts | 184° |
| 2026-05-05 00:07 | 37.46840 | -122.47831 | 9544 ft | 289 kts | 188° |
| 2026-05-05 00:08 | 37.45514 | -122.48077 | 9962 ft | 292 kts | 188° |
| 2026-05-05 00:08 | 37.43475 | -122.48466 | 10423 ft | 302 kts | 188° |
| 2026-05-05 00:08 | 37.41337 | -122.48870 | 10677 ft | 318 kts | 188° |
| 2026-05-05 00:08 | 37.39094 | -122.49290 | 10921 ft | 333 kts | 188° |
| 2026-05-05 00:09 | 37.36827 | -122.49714 | 11144 ft | 346 kts | 188° |
| 2026-05-05 00:09 | 37.34336 | -122.50179 | 11395 ft | 359 kts | 188° |
| 2026-05-05 00:09 | 37.31816 | -122.50648 | 11739 ft | 367 kts | 188° |
| 2026-05-05 00:09 | 37.29306 | -122.51114 | 12197 ft | 371 kts | 188° |
| 2026-05-05 00:10 | 37.26731 | -122.51592 | 12669 ft | 375 kts | 188° |
| 2026-05-05 00:10 | 37.24137 | -122.52073 | 13152 ft | 378 kts | 188° |
| 2026-05-05 00:10 | 37.21521 | -122.52558 | 13618 ft | 381 kts | 188° |
| 2026-05-05 00:10 | 37.18887 | -122.53045 | 14068 ft | 385 kts | 188° |
| 2026-05-05 00:11 | 37.16220 | -122.53538 | 14501 ft | 388 kts | 188° |
| 2026-05-05 00:11 | 37.13540 | -122.54034 | 14940 ft | 390 kts | 188° |
| 2026-05-05 00:11 | 37.10852 | -122.54530 | 15396 ft | 392 kts | 187° |
| 2026-05-05 00:11 | 37.08140 | -122.55031 | 15848 ft | 395 kts | 187° |
| 2026-05-05 00:12 | 37.05409 | -122.55529 | 16316 ft | 397 kts | 187° |
| 2026-05-05 00:12 | 37.02643 | -122.55749 | 16757 ft | 398 kts | 176° |
| 2026-05-05 00:12 | 36.99904 | -122.55256 | 17199 ft | 398 kts | 163° |
| 2026-05-05 00:12 | 36.97332 | -122.54004 | 17683 ft | 398 kts | 150° |
| 2026-05-05 00:13 | 36.94937 | -122.52313 | 18093 ft | 400 kts | 147° |
| 2026-05-05 00:13 | 36.92541 | -122.50526 | 18513 ft | 402 kts | 147° |
| 2026-05-05 00:13 | 36.90129 | -122.48729 | 18897 ft | 405 kts | 147° |
| 2026-05-05 00:13 | 36.87700 | -122.46930 | 19281 ft | 407 kts | 147° |
| 2026-05-05 00:14 | 36.85258 | -122.45128 | 19649 ft | 409 kts | 147° |
| 2026-05-05 00:14 | 36.82798 | -122.43319 | 20034 ft | 411 kts | 147° |
| 2026-05-05 00:14 | 36.80323 | -122.41502 | 20408 ft | 414 kts | 147° |
| 2026-05-05 00:14 | 36.77828 | -122.39672 | 20772 ft | 416 kts | 146° |
| 2026-05-05 00:15 | 36.75328 | -122.37841 | 21142 ft | 418 kts | 146° |
| 2026-05-05 00:15 | 36.72812 | -122.36001 | 21526 ft | 420 kts | 146° |
| 2026-05-05 00:15 | 36.70280 | -122.34150 | 21898 ft | 422 kts | 146° |
| 2026-05-05 00:15 | 36.67743 | -122.32296 | 22284 ft | 423 kts | 146° |
| 2026-05-05 00:16 | 36.65196 | -122.30437 | 22642 ft | 425 kts | 146° |
| 2026-05-05 00:16 | 36.62631 | -122.28567 | 23005 ft | 427 kts | 146° |
| 2026-05-05 00:16 | 36.60049 | -122.26686 | 23364 ft | 429 kts | 146° |
| 2026-05-05 00:16 | 36.57470 | -122.24808 | 23699 ft | 431 kts | 146° |